createdAt,value
2023-01-04T00:00:14.038Z,69.62
2023-01-04T00:01:22.034Z,69.93
2023-01-04T00:02:24.858Z,70.66
2023-01-04T00:03:27.888Z,70.50
2023-01-04T00:04:30.758Z,70.42
2023-01-04T00:05:33.936Z,70.55
2023-01-04T00:06:36.807Z,70.41
2023-01-04T00:07:39.984Z,70.22
2023-01-04T00:08:45.013Z,70.79
2023-01-04T00:09:47.712Z,70.27
2023-01-04T00:10:50.543Z,70.52
2023-01-04T00:11:53.367Z,70.36
2023-01-04T00:12:56.336Z,70.19
2023-01-04T00:14:00.169Z,70.69
2023-01-04T00:15:03.385Z,71.08
2023-01-04T00:16:09.481Z,70.85
2023-01-04T00:17:12.397Z,70.86
2023-01-04T00:18:15.576Z,70.77
2023-01-04T00:19:18.416Z,70.37
2023-01-04T00:20:21.317Z,70.35
2023-01-04T00:21:29.813Z,69.95
2023-01-04T00:22:36.266Z,70.24
2023-01-04T00:23:40.794Z,70.45
2023-01-04T00:24:43.477Z,70.87
2023-01-04T00:25:46.270Z,71.17
2023-01-04T00:26:49.028Z,71.04
2023-01-04T00:27:52.646Z,70.89
2023-01-04T00:29:04.503Z,70.88
2023-01-04T00:30:08.098Z,70.65
2023-01-04T00:31:16.017Z,70.59
2023-01-04T00:32:18.779Z,70.99
2023-01-04T00:33:21.539Z,71.14
2023-01-04T00:34:24.488Z,71.22
2023-01-04T00:35:44.828Z,71.34
2023-01-04T00:36:48.372Z,71.52
2023-01-04T00:37:55.186Z,70.66
2023-01-04T00:39:10.841Z,70.35
2023-01-04T00:40:13.621Z,70.89
2023-01-04T00:41:56.813Z,71.52
2023-01-04T00:42:45.031Z,71.27
2023-01-04T00:43:49.376Z,71.88
2023-01-04T00:44:52.327Z,72.16
2023-01-04T00:45:55.513Z,72.03
2023-01-04T00:47:00.178Z,72.29
2023-01-04T00:48:03.010Z,72.31
2023-01-04T00:49:11.352Z,71.99
2023-01-04T00:50:14.211Z,71.88
2023-01-04T00:51:17.216Z,71.95
2023-01-04T00:52:19.937Z,72.06
2023-01-04T00:53:22.985Z,72.03
2023-01-04T00:54:26.343Z,72.41
2023-01-04T00:55:30.857Z,72.33
2023-01-04T00:56:34.703Z,72.32
2023-01-04T00:57:37.431Z,72.26
2023-01-04T00:58:41.237Z,72.72
2023-01-04T00:59:44.189Z,72.85
2023-01-04T01:00:46.895Z,72.99
2023-01-04T01:01:51.070Z,73.15
2023-01-04T01:02:54.270Z,73.48
2023-01-04T01:04:03.432Z,73.53
2023-01-04T01:05:06.894Z,73.86
2023-01-04T01:06:10.155Z,74.12
2023-01-04T01:07:13.203Z,73.43
2023-01-04T01:08:27.064Z,73.77
2023-01-04T01:09:30.172Z,73.59
2023-01-04T01:10:34.972Z,73.72
2023-01-04T01:11:39.297Z,74.16
2023-01-04T01:13:45.552Z,73.84
2023-01-04T01:14:48.289Z,74.32
2023-01-04T01:15:51.083Z,74.64
2023-01-04T01:16:57.322Z,74.55
2023-01-04T01:18:00.708Z,74.78
2023-01-04T01:19:03.857Z,75.36
2023-01-04T01:20:07.607Z,75.62
2023-01-04T01:21:17.405Z,75.75
2023-01-04T01:22:20.221Z,75.92
2023-01-04T01:23:23.103Z,75.93
2023-01-04T01:24:27.257Z,76.29
2023-01-04T01:25:30.017Z,76.40
2023-01-04T01:26:32.897Z,76.42
2023-01-04T01:27:39.197Z,76.68
2023-01-04T01:28:44.217Z,76.93
2023-01-04T01:29:47.140Z,77.33
2023-01-04T01:30:49.832Z,77.58
2023-01-04T01:31:52.922Z,77.77
2023-01-04T01:32:55.753Z,77.80
2023-01-04T01:33:58.477Z,77.97
2023-01-04T01:35:01.124Z,77.97
2023-01-04T01:36:05.313Z,78.17
2023-01-04T01:37:08.144Z,78.38
2023-01-04T01:38:10.927Z,78.55
2023-01-04T01:39:14.095Z,78.78
2023-01-04T01:40:17.183Z,79.00
2023-01-04T01:41:24.890Z,78.87
2023-01-04T01:42:27.581Z,78.53
2023-01-04T01:43:58.621Z,78.67
2023-01-04T01:45:11.241Z,78.96
2023-01-04T01:46:15.242Z,79.25
2023-01-04T01:47:22.738Z,79.65
2023-01-04T01:48:30.036Z,79.76
2023-01-04T01:49:37.705Z,80.19
2023-01-04T01:50:53.158Z,80.39
2023-01-04T01:51:58.491Z,80.42
2023-01-04T01:53:03.208Z,80.34
2023-01-04T01:54:11.188Z,80.22
2023-01-04T01:55:16.444Z,80.34
2023-01-04T01:56:19.896Z,80.47
2023-01-04T01:57:26.943Z,80.68
2023-01-04T01:58:39.867Z,80.88
2023-01-04T01:59:46.444Z,80.99
2023-01-04T02:00:49.583Z,81.15
2023-01-04T02:01:52.567Z,81.26
2023-01-04T02:03:04.195Z,81.53
2023-01-04T02:04:08.632Z,81.62
2023-01-04T02:05:11.586Z,82.01
2023-01-04T02:06:21.511Z,82.07
2023-01-04T02:07:28.332Z,82.27
2023-01-04T02:08:37.393Z,82.68
2023-01-04T02:09:41.248Z,82.98
2023-01-04T02:10:44.672Z,82.95
2023-01-04T02:11:48.165Z,82.74
2023-01-04T02:12:53.044Z,82.95
2023-01-04T02:14:16.917Z,83.06
2023-01-04T02:15:23.757Z,83.30
2023-01-04T02:16:51.044Z,83.87
2023-01-04T02:18:08.804Z,84.11
2023-01-04T02:19:36.536Z,84.10
2023-01-04T02:20:52.614Z,84.34
2023-01-04T02:22:07.499Z,84.17
2023-01-04T02:23:10.227Z,83.82
2023-01-04T02:24:41.457Z,83.98
2023-01-04T02:25:56.664Z,83.59
2023-01-04T02:27:10.655Z,83.74
2023-01-04T02:28:52.412Z,83.99
2023-01-04T02:29:58.091Z,84.36
2023-01-04T02:31:28.547Z,84.70
2023-01-04T02:32:46.106Z,84.51
2023-01-04T02:34:24.141Z,84.07
2023-01-04T02:35:40.503Z,83.82
2023-01-04T02:37:01.331Z,84.17
2023-01-04T02:38:19.625Z,84.38
2023-01-04T02:39:49.654Z,84.59
2023-01-04T02:41:01.352Z,84.66
2023-01-04T02:42:04.118Z,84.59
2023-01-04T02:43:39.052Z,84.59
2023-01-04T02:44:54.129Z,84.48
2023-01-04T02:46:06.172Z,83.70
2023-01-04T02:47:15.023Z,82.76
2023-01-04T02:48:37.175Z,82.59
2023-01-04T02:50:04.221Z,82.03
2023-01-04T02:51:35.153Z,81.78
2023-01-04T02:52:38.078Z,81.75
2023-01-04T02:53:42.465Z,81.62
2023-01-04T02:54:48.823Z,81.76
2023-01-04T02:56:13.182Z,81.88
2023-01-04T02:57:31.052Z,81.91
2023-01-04T02:58:45.736Z,81.85
2023-01-04T03:00:10.053Z,81.75
2023-01-04T03:01:57.200Z,81.63
2023-01-04T03:03:31.783Z,81.71
2023-01-04T03:05:22.459Z,82.09
2023-01-04T03:06:40.613Z,82.40
2023-01-04T03:07:54.977Z,82.56
2023-01-04T03:09:15.164Z,82.32
2023-01-04T03:10:33.373Z,82.00
2023-01-04T03:12:05.056Z,82.31
2023-01-04T03:13:36.166Z,82.63
2023-01-04T03:14:48.622Z,82.92
2023-01-04T03:15:56.150Z,83.02
2023-01-04T03:17:00.773Z,83.11
2023-01-04T03:18:16.516Z,83.04
2023-01-04T03:19:43.184Z,83.22
2023-01-04T03:20:48.784Z,82.98
2023-01-04T03:21:51.623Z,82.74
2023-01-04T03:23:21.228Z,82.69
2023-01-04T03:24:42.581Z,82.94
2023-01-04T03:26:10.458Z,82.89
2023-01-04T03:27:32.372Z,83.04
2023-01-04T03:28:57.705Z,83.22
2023-01-04T03:30:26.135Z,82.87
2023-01-04T03:32:17.712Z,82.61
2023-01-04T03:33:39.653Z,82.89
2023-01-04T03:35:00.892Z,82.40
2023-01-04T03:36:06.612Z,82.25
2023-01-04T03:37:25.917Z,81.90
2023-01-04T03:39:14.104Z,82.11
2023-01-04T03:40:47.614Z,82.46
2023-01-04T03:42:17.460Z,82.89
2023-01-04T03:43:42.293Z,82.58
2023-01-04T03:45:39.041Z,82.59
2023-01-04T03:47:08.646Z,82.91
2023-01-04T03:48:31.767Z,83.11
2023-01-04T03:49:50.532Z,82.60
2023-01-04T03:51:16.055Z,82.46
2023-01-04T03:52:23.413Z,82.91
2023-01-04T03:53:27.735Z,83.04
2023-01-04T03:54:35.212Z,82.84
2023-01-04T03:55:41.960Z,82.27
2023-01-04T03:56:50.214Z,82.29
2023-01-04T03:57:57.373Z,82.45
2023-01-04T03:59:01.491Z,81.72
2023-01-04T04:00:11.258Z,81.67
2023-01-04T04:01:18.224Z,81.74
2023-01-04T04:02:29.295Z,81.68
2023-01-04T04:03:51.410Z,81.43
2023-01-04T04:05:12.896Z,80.73
2023-01-04T04:06:34.043Z,80.99
2023-01-04T04:07:55.371Z,80.93
2023-01-04T04:09:01.634Z,80.95
2023-01-04T04:10:05.061Z,81.01
2023-01-04T04:11:28.329Z,81.18
2023-01-04T04:12:31.225Z,81.57
2023-01-04T04:13:34.061Z,81.71
2023-01-04T04:14:36.780Z,81.93
2023-01-04T04:15:40.169Z,82.05
2023-01-04T04:16:43.062Z,82.24
2023-01-04T04:17:45.938Z,82.37
2023-01-04T04:18:49.421Z,82.74
2023-01-04T04:19:53.795Z,82.93
2023-01-04T04:20:59.392Z,83.03
2023-01-04T04:22:02.211Z,83.40
2023-01-04T04:23:05.326Z,83.48
2023-01-04T04:24:08.316Z,83.66
2023-01-04T04:25:11.357Z,83.83
2023-01-04T04:26:14.398Z,83.81
2023-01-04T04:27:17.198Z,83.74
2023-01-04T04:28:26.393Z,83.53
2023-01-04T04:29:32.239Z,83.57
2023-01-04T04:30:36.153Z,83.73
2023-01-04T04:31:38.903Z,83.71
2023-01-04T04:32:43.105Z,83.66
2023-01-04T04:33:45.940Z,83.60
2023-01-04T04:34:48.741Z,83.62
2023-01-04T04:35:52.858Z,83.73
2023-01-04T04:36:55.789Z,83.76
2023-01-04T04:37:58.896Z,83.79
2023-01-04T04:39:04.087Z,83.66
2023-01-04T04:40:07.521Z,83.65
2023-01-04T04:41:32.758Z,83.85
2023-01-04T04:42:36.173Z,83.80
2023-01-04T04:43:39.080Z,83.96
2023-01-04T04:44:41.868Z,83.90
2023-01-04T04:45:44.731Z,84.30
2023-01-04T04:46:48.750Z,84.52
2023-01-04T04:47:51.648Z,84.56
2023-01-04T04:48:58.416Z,84.63
2023-01-04T04:50:03.003Z,84.77
2023-01-04T04:51:06.417Z,84.70
2023-01-04T04:52:09.196Z,84.77
2023-01-04T04:53:11.934Z,84.77
2023-01-04T04:54:20.645Z,84.75
2023-01-04T04:55:23.370Z,84.84
2023-01-04T04:56:26.371Z,84.94
2023-01-04T04:57:29.595Z,85.16
2023-01-04T04:58:33.706Z,85.20
2023-01-04T04:59:36.950Z,85.26
2023-01-04T05:00:41.830Z,85.45
2023-01-04T05:01:44.986Z,85.52
2023-01-04T05:02:48.288Z,85.54
2023-01-04T05:03:51.300Z,85.63
2023-01-04T05:04:54.120Z,85.71
2023-01-04T05:05:56.818Z,85.45
2023-01-04T05:07:00.232Z,85.77
2023-01-04T05:08:03.000Z,86.11
2023-01-04T05:09:06.956Z,86.28
2023-01-04T05:10:10.086Z,86.62
2023-01-04T05:11:16.973Z,86.65
2023-01-04T05:12:38.328Z,86.47
2023-01-04T05:13:41.642Z,86.68
2023-01-04T05:14:44.339Z,87.08
2023-01-04T05:15:49.499Z,87.22
2023-01-04T05:16:52.647Z,87.44
2023-01-04T05:17:55.758Z,87.66
2023-01-04T05:19:00.663Z,87.68
2023-01-04T05:20:04.623Z,87.77
2023-01-04T05:21:07.660Z,87.91
2023-01-04T05:22:11.613Z,87.94
2023-01-04T05:23:16.378Z,87.81
2023-01-04T05:24:19.107Z,87.82
2023-01-04T05:25:22.018Z,87.81
2023-01-04T05:26:28.227Z,87.66
2023-01-04T05:27:31.516Z,87.50
2023-01-04T05:28:35.096Z,87.17
2023-01-04T05:29:57.372Z,86.81
2023-01-04T05:31:00.711Z,86.77
2023-01-04T05:32:03.573Z,86.59
2023-01-04T05:33:07.423Z,86.29
2023-01-04T05:34:10.292Z,86.38
2023-01-04T05:35:13.074Z,86.50
2023-01-04T05:36:16.422Z,86.55
2023-01-04T05:37:19.581Z,86.42
2023-01-04T05:38:25.063Z,86.34
2023-01-04T05:39:28.033Z,86.12
2023-01-04T05:40:31.690Z,86.06
2023-01-04T05:41:53.247Z,86.05
2023-01-04T05:42:56.272Z,86.04
2023-01-04T05:43:59.012Z,85.65
2023-01-04T05:45:01.752Z,85.58
2023-01-04T05:46:04.752Z,85.64
2023-01-04T05:47:14.460Z,85.49
2023-01-04T05:48:19.073Z,85.53
2023-01-04T05:49:22.390Z,85.54
2023-01-04T05:50:25.541Z,85.29
2023-01-04T05:51:28.358Z,85.04
2023-01-04T05:52:31.853Z,85.15
2023-01-04T05:53:34.648Z,85.01
2023-01-04T05:54:37.401Z,84.90
2023-01-04T05:55:40.362Z,85.08
2023-01-04T05:56:43.500Z,85.24
2023-01-04T05:57:46.648Z,85.36
2023-01-04T05:58:54.214Z,85.47
2023-01-04T06:01:07.906Z,85.80
2023-01-04T06:02:17.817Z,85.79
2023-01-04T06:03:20.834Z,85.91
2023-01-04T06:04:23.688Z,86.10
2023-01-04T06:05:27.135Z,86.36
2023-01-04T06:06:29.803Z,86.45
2023-01-04T06:07:32.830Z,86.45
2023-01-04T06:08:39.252Z,86.49
2023-01-04T06:09:42.983Z,86.66
2023-01-04T06:10:52.338Z,86.75
2023-01-04T06:11:55.176Z,86.71
2023-01-04T06:12:58.143Z,87.01
2023-01-04T06:14:01.082Z,87.32
2023-01-04T06:15:05.117Z,87.52
2023-01-04T06:16:08.343Z,87.55
2023-01-04T06:17:11.673Z,87.45
2023-01-04T06:18:15.175Z,87.47
2023-01-04T06:19:18.032Z,87.35
2023-01-04T06:20:20.985Z,87.47
2023-01-04T06:21:25.548Z,87.61
2023-01-04T06:22:29.108Z,87.54
2023-01-04T06:23:31.909Z,87.68
2023-01-04T06:24:34.728Z,87.97
2023-01-04T06:25:37.922Z,88.23
2023-01-04T06:26:44.427Z,88.39
2023-01-04T06:27:47.458Z,88.58
2023-01-04T06:28:52.222Z,88.73
2023-01-04T06:29:55.271Z,88.90
2023-01-04T06:30:58.173Z,89.03
2023-01-04T06:32:00.896Z,89.12
2023-01-04T06:33:03.782Z,89.26
2023-01-04T06:34:06.538Z,89.48
2023-01-04T06:35:09.478Z,89.61
2023-01-04T06:36:19.468Z,89.71
2023-01-04T06:37:23.673Z,89.84
2023-01-04T06:38:31.232Z,90.13
2023-01-04T06:39:34.152Z,90.40
2023-01-04T06:40:40.294Z,90.57
2023-01-04T06:41:43.063Z,90.74
2023-01-04T06:42:46.262Z,90.77
2023-01-04T06:43:49.015Z,90.60
2023-01-04T06:44:55.439Z,90.56
2023-01-04T06:45:58.416Z,90.57
2023-01-04T06:47:01.321Z,90.65
2023-01-04T06:48:09.124Z,90.81
2023-01-04T06:49:14.567Z,90.90
2023-01-04T06:50:17.449Z,91.27
2023-01-04T06:51:22.090Z,91.41
2023-01-04T06:52:25.240Z,91.55
2023-01-04T06:53:28.222Z,91.43
2023-01-04T06:54:32.887Z,91.10
2023-01-04T06:55:35.646Z,90.90
2023-01-04T06:56:38.937Z,90.89
2023-01-04T06:57:41.809Z,91.08
2023-01-04T06:58:47.255Z,91.26
2023-01-04T06:59:50.232Z,91.25
2023-01-04T07:00:55.834Z,91.05
2023-01-04T07:01:58.758Z,91.21
2023-01-04T07:03:13.429Z,91.40
2023-01-04T07:04:17.872Z,91.57
2023-01-04T07:05:24.225Z,91.80
2023-01-04T07:06:27.058Z,91.72
2023-01-04T07:07:29.904Z,91.79
2023-01-04T07:08:34.016Z,91.98
2023-01-04T07:09:37.179Z,92.03
2023-01-04T07:10:40.679Z,91.74
2023-01-04T07:11:43.798Z,91.47
2023-01-04T07:12:46.655Z,91.60
2023-01-04T07:13:49.517Z,91.80
2023-01-04T07:14:52.388Z,92.16
2023-01-04T07:15:55.444Z,92.31
2023-01-04T07:16:58.375Z,92.29
2023-01-04T07:18:01.380Z,92.64
2023-01-04T07:19:04.345Z,92.77
2023-01-04T07:20:07.441Z,92.96
2023-01-04T07:21:12.812Z,93.16
2023-01-04T07:22:16.159Z,93.04
2023-01-04T07:23:19.054Z,92.86
2023-01-04T07:24:26.331Z,93.12
2023-01-04T07:25:32.817Z,93.25
2023-01-04T07:26:36.155Z,93.04
2023-01-04T07:27:39.272Z,93.19
2023-01-04T07:29:06.268Z,93.36
2023-01-04T07:30:09.907Z,93.43
2023-01-04T07:31:16.849Z,93.58
2023-01-04T07:32:19.544Z,94.13
2023-01-04T07:33:22.251Z,94.42
2023-01-04T07:34:26.173Z,94.29
2023-01-04T07:35:28.928Z,94.16
2023-01-04T07:36:32.228Z,94.42
2023-01-04T07:37:38.437Z,94.68
2023-01-04T07:38:43.928Z,94.96
2023-01-04T07:39:49.409Z,95.25
2023-01-04T07:40:56.219Z,95.43
2023-01-04T07:42:00.072Z,95.49
2023-01-04T07:43:02.798Z,95.40
2023-01-04T07:44:06.794Z,95.30
2023-01-04T07:45:09.847Z,95.28
2023-01-04T07:46:12.935Z,95.15
2023-01-04T07:47:15.610Z,95.03
2023-01-04T07:48:18.750Z,95.10
2023-01-04T07:49:21.564Z,95.24
2023-01-04T07:50:28.480Z,95.30
2023-01-04T07:51:32.632Z,95.25
2023-01-04T07:52:35.346Z,95.11
2023-01-04T07:53:38.667Z,95.08
2023-01-04T07:54:41.473Z,95.08
2023-01-04T07:55:44.129Z,95.13
2023-01-04T07:56:48.120Z,95.21
2023-01-04T07:57:53.913Z,95.31
2023-01-04T07:58:59.452Z,95.45
2023-01-04T08:00:02.332Z,95.51
2023-01-04T08:01:16.998Z,95.60
2023-01-04T08:02:20.018Z,95.79
2023-01-04T08:03:22.976Z,95.69
2023-01-04T08:04:31.126Z,95.47
2023-01-04T08:05:37.632Z,95.43
2023-01-04T08:06:41.756Z,95.58
2023-01-04T08:07:44.536Z,95.76
2023-01-04T08:08:50.149Z,95.78
2023-01-04T08:09:56.400Z,95.74
2023-01-04T08:11:03.806Z,95.77
2023-01-04T08:12:06.474Z,95.82
2023-01-04T08:13:09.217Z,95.74
2023-01-04T08:14:12.629Z,95.54
2023-01-04T08:15:15.503Z,95.40
2023-01-04T08:16:27.893Z,95.41
2023-01-04T08:17:34.293Z,95.47
2023-01-04T08:18:37.439Z,95.47
2023-01-04T08:19:40.165Z,95.55
2023-01-04T08:20:42.885Z,95.65
2023-01-04T08:21:46.302Z,95.68
2023-01-04T08:22:48.954Z,95.71
2023-01-04T08:23:53.729Z,95.73
2023-01-04T08:24:56.414Z,95.71
2023-01-04T08:26:07.651Z,95.62
2023-01-04T08:27:11.286Z,95.50
2023-01-04T08:28:14.825Z,95.39
2023-01-04T08:29:18.008Z,95.30
2023-01-04T08:30:20.671Z,95.17
2023-01-04T08:31:27.704Z,95.10
2023-01-04T08:32:30.620Z,95.16
2023-01-04T08:33:33.753Z,95.22
2023-01-04T08:34:36.546Z,95.23
2023-01-04T08:35:39.284Z,95.23
2023-01-04T08:36:48.574Z,95.16
2023-01-04T08:37:51.214Z,95.07
2023-01-04T08:39:01.600Z,95.01
2023-01-04T08:40:08.431Z,94.86
2023-01-04T08:41:39.229Z,94.83
2023-01-04T08:42:34.924Z,94.75
2023-01-04T08:43:37.827Z,94.66
2023-01-04T08:44:40.754Z,94.60
2023-01-04T08:45:43.528Z,94.42
2023-01-04T08:46:46.378Z,94.15
2023-01-04T08:47:49.364Z,93.93
2023-01-04T08:48:54.001Z,93.82
2023-01-04T08:49:57.363Z,93.68
2023-01-04T08:51:06.585Z,93.38
2023-01-04T08:52:13.313Z,93.20
2023-01-04T08:53:16.228Z,93.05
2023-01-04T08:54:19.077Z,92.86
2023-01-04T08:55:23.646Z,92.55
2023-01-04T08:56:27.008Z,92.31
2023-01-04T08:57:29.678Z,91.59
2023-01-04T08:58:34.195Z,91.27
2023-01-04T08:59:37.976Z,91.18
2023-01-04T09:00:40.847Z,90.96
2023-01-04T09:01:43.665Z,90.37
2023-01-04T09:02:48.322Z,89.85
2023-01-04T09:03:51.168Z,89.49
2023-01-04T09:05:00.296Z,89.20
2023-01-04T09:06:08.877Z,89.12
2023-01-04T09:07:11.815Z,87.70
2023-01-04T09:08:14.724Z,87.14
2023-01-04T09:09:18.254Z,86.74
2023-01-04T09:10:21.031Z,86.25
2023-01-04T09:11:25.945Z,85.97
2023-01-04T09:12:28.833Z,85.91
2023-01-04T09:13:32.779Z,85.69
2023-01-04T09:14:35.628Z,85.21
2023-01-04T09:15:38.526Z,85.44
2023-01-04T09:16:41.970Z,85.29
2023-01-04T09:18:05.261Z,85.01
2023-01-04T09:19:09.375Z,83.95
2023-01-04T09:20:12.679Z,82.89
2023-01-04T09:21:23.206Z,82.60
2023-01-04T09:22:26.018Z,82.68
2023-01-04T09:23:31.731Z,82.63
2023-01-04T09:24:35.532Z,82.59
2023-01-04T09:25:41.070Z,82.49
2023-01-04T09:26:43.916Z,82.28
2023-01-04T09:27:46.725Z,82.35
2023-01-04T09:28:55.990Z,82.30
2023-01-04T09:30:02.367Z,82.03
2023-01-04T09:31:13.403Z,81.82
2023-01-04T09:32:16.955Z,81.50
2023-01-04T09:33:19.889Z,81.47
2023-01-04T09:34:22.707Z,81.27
2023-01-04T09:35:25.562Z,80.87
2023-01-04T09:36:32.259Z,80.32
2023-01-04T09:37:34.933Z,80.15
2023-01-04T09:38:44.286Z,80.07
2023-01-04T09:39:47.757Z,79.90
2023-01-04T09:41:17.019Z,79.89
2023-01-04T09:42:41.599Z,79.68
2023-01-04T09:43:48.929Z,79.00
2023-01-04T09:46:37.888Z,77.52
2023-01-04T09:48:01.245Z,77.52
2023-01-04T09:49:29.572Z,77.61
2023-01-04T09:50:49.025Z,77.35
2023-01-04T09:52:03.903Z,75.65
2023-01-04T09:53:27.495Z,75.90
2023-01-04T09:54:45.223Z,74.80
2023-01-04T09:55:52.973Z,74.37
2023-01-04T09:56:59.619Z,75.02
2023-01-04T09:58:08.015Z,76.37
2023-01-04T09:59:19.482Z,76.47
2023-01-04T10:00:41.798Z,76.30
2023-01-04T10:01:55.973Z,76.24
2023-01-04T10:03:21.372Z,76.17
2023-01-04T10:04:43.357Z,76.14
2023-01-04T10:05:46.241Z,76.08
2023-01-04T10:06:50.151Z,76.15
2023-01-04T10:07:52.992Z,75.98
2023-01-04T10:09:03.583Z,75.86
2023-01-04T10:10:13.544Z,75.96
2023-01-04T10:11:36.034Z,75.54
2023-01-04T10:12:48.932Z,75.32
2023-01-04T10:14:31.290Z,75.23
2023-01-04T10:15:47.180Z,75.34
2023-01-04T10:17:17.682Z,75.06
2023-01-04T10:19:36.768Z,74.25
2023-01-04T10:22:17.616Z,74.48
2023-01-04T10:23:28.762Z,74.22
2023-01-04T10:24:34.518Z,73.46
2023-01-04T10:25:46.921Z,73.28
2023-01-04T10:26:51.535Z,73.02
2023-01-04T10:28:07.298Z,73.41
2023-01-04T10:29:38.043Z,73.12
2023-01-04T10:30:47.023Z,73.30
2023-01-04T10:31:56.401Z,73.52
2023-01-04T10:33:07.925Z,74.04
2023-01-04T10:34:18.995Z,74.14
2023-01-04T10:35:27.405Z,73.95
2023-01-04T10:36:34.364Z,73.87
2023-01-04T10:37:38.464Z,73.48
2023-01-04T10:38:44.670Z,73.72
2023-01-04T10:39:52.023Z,74.12
2023-01-04T10:40:58.618Z,74.34
2023-01-04T10:42:19.043Z,74.34
2023-01-04T10:44:10.647Z,74.35
2023-01-04T10:45:15.631Z,74.74
2023-01-04T10:46:29.611Z,74.96
2023-01-04T10:48:23.396Z,75.01
2023-01-04T10:49:41.981Z,74.75
2023-01-04T10:50:50.356Z,73.82
2023-01-04T10:52:12.673Z,73.67
2023-01-04T10:53:23.968Z,73.91
2023-01-04T10:54:30.990Z,74.19
2023-01-04T10:56:25.750Z,74.99
2023-01-04T10:57:27.513Z,75.04
2023-01-04T10:59:21.289Z,74.86
2023-01-04T11:00:40.177Z,75.00
2023-01-04T11:02:08.100Z,74.66
2023-01-04T11:03:21.751Z,75.03
2023-01-04T11:04:38.345Z,74.88
2023-01-04T11:05:50.152Z,74.71
2023-01-04T11:07:15.645Z,74.58
2023-01-04T11:08:37.242Z,74.01
2023-01-04T11:09:58.266Z,72.13
2023-01-04T11:11:08.390Z,72.52
2023-01-04T11:12:15.654Z,72.23
2023-01-04T11:13:18.645Z,72.27
2023-01-04T11:14:22.275Z,72.14
2023-01-04T11:15:25.066Z,71.52
2023-01-04T11:16:30.351Z,71.00
2023-01-04T11:17:35.106Z,70.14
2023-01-04T11:18:40.939Z,69.22
2023-01-04T11:19:44.011Z,69.40
2023-01-04T11:20:46.837Z,68.45
2023-01-04T11:21:58.480Z,68.51
2023-01-04T11:23:20.218Z,68.84
2023-01-04T11:24:31.888Z,68.94
2023-01-04T11:25:42.145Z,69.49
2023-01-04T11:26:49.087Z,68.80
2023-01-04T11:27:57.873Z,69.25
2023-01-04T11:29:13.036Z,68.31
2023-01-04T11:30:35.921Z,68.85
2023-01-04T11:31:56.972Z,69.62
2023-01-04T11:33:18.201Z,69.05
2023-01-04T11:34:44.864Z,67.33
2023-01-04T11:35:54.420Z,67.07
2023-01-04T11:36:57.175Z,66.66
2023-01-04T11:38:15.063Z,67.43
2023-01-04T11:39:20.550Z,69.03
2023-01-04T11:40:25.251Z,68.99
2023-01-04T11:41:28.196Z,68.64
2023-01-04T11:42:31.887Z,69.00
2023-01-04T11:43:37.168Z,68.32
2023-01-04T11:44:39.891Z,69.11
2023-01-04T11:45:54.083Z,69.52
2023-01-04T11:47:08.903Z,68.82
2023-01-04T11:48:15.681Z,67.20
2023-01-04T11:49:21.259Z,66.39
2023-01-04T11:50:36.108Z,67.53
2023-01-04T11:51:42.123Z,67.26
2023-01-04T11:52:46.192Z,66.43
2023-01-04T11:54:19.935Z,67.16
2023-01-04T11:55:31.657Z,65.27
2023-01-04T11:56:37.197Z,64.22
2023-01-04T11:57:39.931Z,64.04
2023-01-04T11:58:44.805Z,64.42
2023-01-04T12:00:14.804Z,64.54
2023-01-04T12:01:23.558Z,64.87
2023-01-04T12:03:50.776Z,66.25
2023-01-04T12:04:54.164Z,65.05
2023-01-04T12:05:57.626Z,65.45
2023-01-04T12:07:07.163Z,64.62
2023-01-04T12:08:29.998Z,63.87
2023-01-04T12:09:33.054Z,63.90
2023-01-04T12:10:36.664Z,63.90
2023-01-04T12:11:42.865Z,63.95
2023-01-04T12:12:45.622Z,64.44
2023-01-04T12:13:48.406Z,63.79
2023-01-04T12:14:51.324Z,62.92
2023-01-04T12:16:06.384Z,63.38
2023-01-04T12:17:14.139Z,64.18
2023-01-04T12:18:34.601Z,64.53
2023-01-04T12:19:40.452Z,65.01
2023-01-04T12:20:43.573Z,63.63
2023-01-04T12:21:50.282Z,63.09
2023-01-04T12:22:52.972Z,64.04
2023-01-04T12:23:56.474Z,63.77
2023-01-04T12:25:01.389Z,64.97
2023-01-04T12:26:04.538Z,64.97
2023-01-04T12:27:14.355Z,64.90
2023-01-04T12:28:43.348Z,64.71
2023-01-04T12:30:02.978Z,64.30
2023-01-04T12:31:21.712Z,64.34
2023-01-04T12:32:27.705Z,64.93
2023-01-04T12:33:30.626Z,63.28
2023-01-04T12:34:34.448Z,63.29
2023-01-04T12:36:04.072Z,64.04
2023-01-04T12:37:07.192Z,63.32
2023-01-04T12:38:10.998Z,63.63
2023-01-04T12:39:16.613Z,64.13
2023-01-04T12:40:47.431Z,64.33
2023-01-04T12:42:03.988Z,64.58
2023-01-04T12:43:15.664Z,63.67
2023-01-04T12:44:36.730Z,63.81
2023-01-04T12:45:39.426Z,63.88
2023-01-04T12:47:02.157Z,61.50
2023-01-04T12:48:46.179Z,61.90
2023-01-04T12:50:00.806Z,62.22
2023-01-04T12:51:35.406Z,62.75
2023-01-04T12:53:10.091Z,63.19
2023-01-04T12:54:06.245Z,63.36
2023-01-04T12:55:54.435Z,62.43
2023-01-04T12:57:23.197Z,62.88
2023-01-04T12:58:49.773Z,62.23
2023-01-04T13:00:06.639Z,62.88
2023-01-04T13:01:28.968Z,61.32
2023-01-04T13:02:36.790Z,62.16
2023-01-04T13:03:48.656Z,62.26
2023-01-04T13:05:43.760Z,61.97
2023-01-04T13:06:23.947Z,61.28
2023-01-04T13:07:31.557Z,61.31
2023-01-04T13:08:42.297Z,61.19
2023-01-04T13:10:02.856Z,61.54
2023-01-04T13:11:24.809Z,61.76
2023-01-04T13:12:41.280Z,61.74
2023-01-04T13:13:57.378Z,62.17
2023-01-04T13:15:11.102Z,62.82
2023-01-04T13:16:43.196Z,61.92
2023-01-04T13:17:47.081Z,61.67
2023-01-04T13:18:56.826Z,62.22
2023-01-04T13:20:00.896Z,62.12
2023-01-04T13:21:14.640Z,62.80
2023-01-04T13:22:29.137Z,63.04
2023-01-04T13:23:32.745Z,63.05
2023-01-04T13:24:35.922Z,62.61
2023-01-04T13:25:38.705Z,63.25
2023-01-04T13:26:46.245Z,63.60
2023-01-04T13:28:04.388Z,63.65
2023-01-04T13:29:15.882Z,63.78
2023-01-04T13:30:32.520Z,63.78
2023-01-04T13:32:04.528Z,63.66
2023-01-04T13:33:28.155Z,63.64
2023-01-04T13:34:48.409Z,63.16
2023-01-04T13:36:02.254Z,63.50
2023-01-04T13:37:11.720Z,63.98
2023-01-04T13:38:16.621Z,64.57
2023-01-04T13:39:20.008Z,65.45
2023-01-04T13:40:28.077Z,66.56
2023-01-04T13:41:31.026Z,66.36
2023-01-04T13:42:40.275Z,66.26
2023-01-04T13:44:11.707Z,66.63
2023-01-04T13:45:19.996Z,67.52
2023-01-04T13:46:25.491Z,68.39
2023-01-04T13:47:30.539Z,69.05
2023-01-04T13:48:38.770Z,69.86
2023-01-04T13:49:41.737Z,70.84
2023-01-04T13:50:58.031Z,71.13
2023-01-04T13:52:49.764Z,71.77
2023-01-04T13:53:55.063Z,72.46
2023-01-04T13:55:27.684Z,73.05
2023-01-04T13:56:33.310Z,73.67
2023-01-04T13:57:36.959Z,74.39
2023-01-04T13:58:39.840Z,75.00
2023-01-04T13:59:42.831Z,75.19
2023-01-04T14:01:00.455Z,75.52
2023-01-04T14:02:06.162Z,75.59
2023-01-04T14:03:15.593Z,75.92
2023-01-04T14:04:26.648Z,76.09
2023-01-04T14:05:29.499Z,76.27
2023-01-04T14:06:47.339Z,76.77
2023-01-04T14:07:50.264Z,77.29
2023-01-04T14:09:04.846Z,77.63
2023-01-04T14:10:17.819Z,77.58
2023-01-04T14:12:06.125Z,77.05
2023-01-04T14:13:19.505Z,76.63
2023-01-04T14:14:41.232Z,76.57
2023-01-04T14:15:44.002Z,76.73
2023-01-04T14:16:47.769Z,76.92
2023-01-04T14:17:57.612Z,76.87
2023-01-04T14:19:39.255Z,76.69
2023-01-04T14:20:42.112Z,77.02
2023-01-04T14:21:44.936Z,77.10
2023-01-04T14:22:47.619Z,76.80
2023-01-04T14:23:50.363Z,76.93
2023-01-04T14:25:11.478Z,76.99
2023-01-04T14:26:31.556Z,76.87
2023-01-04T14:27:40.354Z,76.73
2023-01-04T14:28:49.959Z,76.95
2023-01-04T14:29:53.371Z,77.10
2023-01-04T14:31:03.797Z,77.11
2023-01-04T14:32:09.228Z,77.28
2023-01-04T14:33:18.065Z,77.45
2023-01-04T14:34:20.850Z,77.57
2023-01-04T14:35:24.773Z,77.80
2023-01-04T14:36:32.752Z,77.77
2023-01-04T14:37:36.205Z,77.97
2023-01-04T14:39:06.577Z,78.07
2023-01-04T14:40:25.562Z,78.02
2023-01-04T14:41:46.346Z,78.39
2023-01-04T14:42:49.150Z,78.61
2023-01-04T14:43:53.867Z,78.71
2023-01-04T14:44:59.463Z,78.84
2023-01-04T14:46:02.887Z,78.92
2023-01-04T14:47:07.593Z,79.09
2023-01-04T14:48:16.093Z,79.35
2023-01-04T14:49:22.498Z,79.61
2023-01-04T14:50:25.264Z,79.78
2023-01-04T14:51:48.184Z,79.72
2023-01-04T14:52:52.307Z,80.08
2023-01-04T14:53:55.092Z,80.21
2023-01-04T14:54:59.452Z,80.36
2023-01-04T14:56:02.089Z,80.66
2023-01-04T14:57:05.022Z,80.93
2023-01-04T14:58:07.746Z,81.13
2023-01-04T14:59:11.128Z,81.39